Time;durP1;ratioP1;P1;durP2;ratioP2;P2;SDS_P1;SDS_P2;PMS_P1;PMS_P2;Temp;Humidity;BMP_temperature;BMP_pressure;BME280_temperature;BME280_humidity;BME280_pressure;Samples;Min_cycle;Max_cycle;Signal;HPM_P1;HPM_P2
2021/08/17 00:01:51;;;;;;;7.25;1.83;;;;;;;;;;5047284;28;20131;-85
2021/08/17 00:04:25;;;;;;;6.15;1.77;;;;;;;;;;5051896;28;20041;-86
2021/08/17 00:06:53;;;;;;;4.90;2.00;;;;;;;;;;5050971;28;20131;-86
2021/08/17 00:09:20;;;;;;;9.07;1.80;;;;;;;;;;5051105;28;20051;-85
2021/08/17 00:11:47;;;;;;;12.25;1.75;;;;;;;;;;5049740;28;20073;-86
2021/08/17 00:14:14;;;;;;;11.90;2.55;;;;;;;;;;5049645;28;20115;-84
2021/08/17 00:16:48;;;;;;;8.57;1.90;;;;;;;;;;5050226;28;20087;-86
2021/08/17 00:19:15;;;;;;;4.13;1.70;;;;;;;;;;5050365;28;20144;-84
2021/08/17 00:21:42;;;;;;;6.32;1.80;;;;;;;;;;5051429;28;20081;-84
2021/08/17 00:24:13;;;;;;;6.18;1.65;;;;;;;;;;5039681;28;20666;-85
2021/08/17 00:26:41;;;;;;;6.32;1.77;;;;;;;;;;5050063;28;20152;-85
2021/08/17 00:29:08;;;;;;;9.45;1.67;;;;;;;;;;5055242;28;20160;-93
2021/08/17 00:31:36;;;;;;;9.30;2.05;;;;;;;;;;5054077;28;20076;-86
2021/08/17 00:34:03;;;;;;;11.20;2.60;;;;;;;;;;5053973;28;20132;-85
2021/08/17 00:36:40;;;;;;;6.82;1.88;;;;;;;;;;5054085;28;20065;-87
2021/08/17 00:39:07;;;;;;;8.05;2.05;;;;;;;;;;5054433;28;20087;-87
2021/08/17 00:41:39;;;;;;;8.45;2.03;;;;;;;;;;5053334;28;20057;-87
2021/08/17 00:44:16;;;;;;;6.47;1.70;;;;;;;;;;5053919;28;20449;-90
2021/08/17 00:46:44;;;;;;;13.55;2.25;;;;;;;;;;5053759;28;20124;-87
2021/08/17 00:49:11;;;;;;;5.57;1.92;;;;;;;;;;5053576;28;20060;-87
2021/08/17 00:51:38;;;;;;;8.27;1.80;;;;;;;;;;5053777;28;20087;-88
2021/08/17 00:54:06;;;;;;;3.40;1.38;;;;;;;;;;5053913;28;20040;-91
2021/08/17 00:56:34;;;;;;;9.10;1.40;;;;;;;;;;5054853;28;20041;-85
2021/08/17 00:59:01;;;;;;;2.95;1.58;;;;;;;;;;5053780;28;20140;-85
2021/08/17 01:01:28;;;;;;;3.72;1.25;;;;;;;;;;5053375;28;20060;-87
2021/08/17 01:03:56;;;;;;;4.35;1.48;;;;;;;;;;5054741;28;20075;-87
2021/08/17 01:06:24;;;;;;;5.60;1.33;;;;;;;;;;5053327;28;20538;-87
2021/08/17 01:08:51;;;;;;;9.50;1.52;;;;;;;;;;5053361;28;20123;-88
2021/08/17 01:11:18;;;;;;;8.15;2.20;;;;;;;;;;5054150;28;20087;-86
2021/08/17 01:13:48;;;;;;;8.38;1.38;;;;;;;;;;5053064;28;20052;-92
2021/08/17 01:16:21;;;;;;;6.43;1.30;;;;;;;;;;5053716;28;20076;-91
2021/08/17 01:18:49;;;;;;;6.57;1.80;;;;;;;;;;5053827;28;20131;-92
2021/08/17 01:21:17;;;;;;;10.23;1.58;;;;;;;;;;5053589;28;20576;-88
2021/08/17 01:23:47;;;;;;;13.13;1.50;;;;;;;;;;5052286;28;20774;-91
2021/08/17 01:26:14;;;;;;;6.70;1.10;;;;;;;;;;5048639;28;20139;-89
2021/08/17 01:28:42;;;;;;;10.48;1.60;;;;;;;;;;5047004;28;20180;-89
2021/08/17 01:31:10;;;;;;;9.55;1.55;;;;;;;;;;5049424;28;20080;-92
2021/08/17 01:33:37;;;;;;;4.05;1.10;;;;;;;;;;5050334;28;20088;-91
2021/08/17 01:36:05;;;;;;;4.15;1.00;;;;;;;;;;5049726;28;20478;-90
2021/08/17 01:38:32;;;;;;;11.05;1.40;;;;;;;;;;5049443;28;20087;-89
2021/08/17 01:40:59;;;;;;;6.05;1.35;;;;;;;;;;5049836;28;20128;-88
2021/08/17 01:43:26;;;;;;;5.05;1.17;;;;;;;;;;5048661;28;20052;-87
2021/08/17 01:45:57;;;;;;;7.68;1.30;;;;;;;;;;5051585;28;20076;-90
2021/08/17 01:48:25;;;;;;;7.35;1.27;;;;;;;;;;5053020;28;20103;-89
2021/08/17 01:50:53;;;;;;;9.50;1.60;;;;;;;;;;5046854;28;20067;-89
2021/08/17 01:53:21;;;;;;;17.42;1.35;;;;;;;;;;5054340;28;20080;-90
2021/08/17 01:55:54;;;;;;;7.75;1.52;;;;;;;;;;5042562;28;20073;-89
2021/08/17 01:58:23;;;;;;;6.35;1.20;;;;;;;;;;5053009;28;20076;-93
2021/08/17 02:00:51;;;;;;;7.05;1.20;;;;;;;;;;5052898;28;20122;-90
2021/08/17 02:03:18;;;;;;;14.02;1.58;;;;;;;;;;5052643;28;20103;-87
2021/08/17 02:05:47;;;;;;;5.80;1.52;;;;;;;;;;5052708;28;20128;-88
2021/08/17 02:08:15;;;;;;;6.53;1.67;;;;;;;;;;5052648;28;20051;-88
2021/08/17 02:10:42;;;;;;;5.30;1.88;;;;;;;;;;5054091;28;20079;-86
2021/08/17 02:13:09;;;;;;;3.97;1.00;;;;;;;;;;5053718;28;20457;-90
2021/08/17 02:15:36;;;;;;;6.75;1.35;;;;;;;;;;5052883;28;20080;-88
2021/08/17 02:18:03;;;;;;;7.25;2.25;;;;;;;;;;5048128;28;20553;-88
2021/08/17 02:20:31;;;;;;;9.40;1.23;;;;;;;;;;5050421;28;20051;-88
2021/08/17 02:22:58;;;;;;;5.47;1.38;;;;;;;;;;5052310;28;20080;-88
2021/08/17 02:25:25;;;;;;;3.53;1.27;;;;;;;;;;5052238;28;20083;-92
2021/08/17 02:27:52;;;;;;;7.78;1.17;;;;;;;;;;5052229;28;20053;-87
2021/08/17 02:30:21;;;;;;;3.05;1.17;;;;;;;;;;5052345;28;20103;-88
2021/08/17 02:32:48;;;;;;;6.22;0.98;;;;;;;;;;5033563;28;20055;-88
2021/08/17 02:35:18;;;;;;;5.70;1.40;;;;;;;;;;5051925;28;20651;-87
2021/08/17 02:37:45;;;;;;;7.97;1.27;;;;;;;;;;5052193;28;20107;-87
2021/08/17 02:40:13;;;;;;;5.13;1.10;;;;;;;;;;5052290;28;20044;-90
2021/08/17 02:42:40;;;;;;;5.85;1.10;;;;;;;;;;5051621;28;20152;-87
2021/08/17 02:45:10;;;;;;;7.35;1.27;;;;;;;;;;5052771;28;20106;-92
2021/08/17 02:47:38;;;;;;;3.22;1.10;;;;;;;;;;5072128;28;20445;-89
2021/08/17 02:50:06;;;;;;;5.00;1.65;;;;;;;;;;5071517;28;20457;-93
2021/08/17 02:52:34;;;;;;;5.90;1.17;;;;;;;;;;5058124;28;20057;-89
2021/08/17 02:55:02;;;;;;;4.35;1.50;;;;;;;;;;5051861;28;20132;-92
2021/08/17 02:57:29;;;;;;;4.43;1.15;;;;;;;;;;5051505;28;20128;-86
2021/08/17 02:59:56;;;;;;;6.32;1.20;;;;;;;;;;5052567;28;20087;-90
2021/08/17 03:02:23;;;;;;;4.97;1.27;;;;;;;;;;5052384;28;20416;-92
2021/08/17 03:04:51;;;;;;;4.50;1.10;;;;;;;;;;5052561;28;20049;-85
2021/08/17 03:07:18;;;;;;;5.05;1.42;;;;;;;;;;5052470;28;20107;-88
2021/08/17 03:09:45;;;;;;;6.45;1.58;;;;;;;;;;5052076;28;20423;-88
2021/08/17 03:12:12;;;;;;;5.75;1.63;;;;;;;;;;5050748;28;20072;-87
2021/08/17 03:14:40;;;;;;;7.93;1.20;;;;;;;;;;5050119;28;20106;-86
2021/08/17 03:17:07;;;;;;;6.57;1.70;;;;;;;;;;5050869;28;20737;-88
2021/08/17 03:19:34;;;;;;;6.50;1.52;;;;;;;;;;5052465;28;21986;-88
2021/08/17 03:22:02;;;;;;;4.45;1.25;;;;;;;;;;5051485;28;20072;-87
2021/08/17 03:24:30;;;;;;;3.28;1.38;;;;;;;;;;5050613;28;20135;-87
2021/08/17 03:26:57;;;;;;;5.45;1.45;;;;;;;;;;5051062;28;20096;-89
2021/08/17 03:29:24;;;;;;;4.20;1.50;;;;;;;;;;5049736;28;20127;-88
2021/08/17 03:31:52;;;;;;;6.05;1.90;;;;;;;;;;5045281;28;20080;-90
2021/08/17 03:34:19;;;;;;;7.97;1.80;;;;;;;;;;5046806;28;20133;-90
2021/08/17 03:36:47;;;;;;;4.53;1.92;;;;;;;;;;5047830;28;20095;-90
2021/08/17 03:39:14;;;;;;;4.93;1.17;;;;;;;;;;5046864;28;20052;-89
2021/08/17 03:41:42;;;;;;;5.72;1.48;;;;;;;;;;5047038;28;20122;-88
2021/08/17 03:44:09;;;;;;;4.03;1.60;;;;;;;;;;5045741;28;20126;-87
2021/08/17 03:46:36;;;;;;;6.13;1.95;;;;;;;;;;5045049;28;20136;-91
2021/08/17 03:49:04;;;;;;;10.30;1.92;;;;;;;;;;5046129;28;20605;-90
2021/08/17 03:51:32;;;;;;;6.05;1.85;;;;;;;;;;5044701;28;20580;-91
2021/08/17 03:53:59;;;;;;;7.20;2.00;;;;;;;;;;5048151;28;20100;-89
2021/08/17 03:56:27;;;;;;;7.28;1.45;;;;;;;;;;5045523;28;20127;-92
2021/08/17 03:58:54;;;;;;;3.25;1.50;;;;;;;;;;5045810;28;20095;-91
2021/08/17 04:01:22;;;;;;;8.25;1.73;;;;;;;;;;5045063;28;20045;-90
2021/08/17 04:03:49;;;;;;;6.13;2.58;;;;;;;;;;5045277;28;20532;-88
2021/08/17 04:06:17;;;;;;;3.90;1.58;;;;;;;;;;5045763;28;20079;-87
2021/08/17 04:08:47;;;;;;;7.90;1.85;;;;;;;;;;5047187;28;20402;-91
2021/08/17 04:11:15;;;;;;;5.78;1.77;;;;;;;;;;5049657;28;20131;-86
2021/08/17 04:13:47;;;;;;;7.28;1.58;;;;;;;;;;5049694;28;20053;-86
2021/08/17 04:16:15;;;;;;;4.93;2.25;;;;;;;;;;5050012;28;20085;-85
2021/08/17 04:18:42;;;;;;;5.00;1.88;;;;;;;;;;5049925;28;20076;-85
2021/08/17 04:21:11;;;;;;;9.35;1.58;;;;;;;;;;5051179;28;20085;-89
2021/08/17 04:23:38;;;;;;;6.45;1.80;;;;;;;;;;5050511;28;20148;-85
2021/08/17 04:26:05;;;;;;;4.97;1.88;;;;;;;;;;5050614;28;20063;-91
2021/08/17 04:28:39;;;;;;;8.27;1.75;;;;;;;;;;5050322;28;20045;-89
2021/08/17 04:31:20;;;;;;;4.25;1.83;;;;;;;;;;5050506;28;20135;-91
2021/08/17 04:33:49;;;;;;;5.78;1.55;;;;;;;;;;5049350;28;20053;-85
2021/08/17 04:36:23;;;;;;;5.47;1.80;;;;;;;;;;5049920;28;20144;-86
2021/08/17 04:38:51;;;;;;;4.40;1.65;;;;;;;;;;5049451;28;20524;-88
2021/08/17 04:41:23;;;;;;;8.25;1.95;;;;;;;;;;5048844;28;20076;-84
2021/08/17 04:43:50;;;;;;;4.80;1.48;;;;;;;;;;5049587;28;20087;-88
2021/08/17 04:46:18;;;;;;;11.13;1.90;;;;;;;;;;5050519;28;20578;-87
2021/08/17 04:48:45;;;;;;;4.85;1.52;;;;;;;;;;5050680;28;20045;-85
2021/08/17 04:51:12;;;;;;;6.32;1.92;;;;;;;;;;5049654;28;20513;-86
2021/08/17 04:53:39;;;;;;;10.27;1.70;;;;;;;;;;5048841;28;20489;-85
2021/08/17 04:56:07;;;;;;;4.00;1.60;;;;;;;;;;5049368;28;20437;-83
2021/08/17 04:58:36;;;;;;;7.95;1.67;;;;;;;;;;5050886;28;20136;-87
2021/08/17 05:01:03;;;;;;;5.60;1.50;;;;;;;;;;5049122;28;20132;-85
2021/08/17 05:03:31;;;;;;;6.90;1.25;;;;;;;;;;5050340;28;20060;-83
2021/08/17 05:05:58;;;;;;;11.60;1.75;;;;;;;;;;5036306;28;20088;-86
2021/08/17 05:08:26;;;;;;;4.20;1.10;;;;;;;;;;5029284;28;20045;-91
2021/08/17 05:10:53;;;;;;;8.07;1.58;;;;;;;;;;5040096;28;20077;-85
2021/08/17 05:13:21;;;;;;;6.60;1.75;;;;;;;;;;5050829;28;20056;-87
2021/08/17 05:15:52;;;;;;;5.50;1.67;;;;;;;;;;5053395;28;20053;-82
2021/08/17 05:18:19;;;;;;;9.05;1.95;;;;;;;;;;5052490;28;20045;-89
2021/08/17 05:20:48;;;;;;;7.32;1.80;;;;;;;;;;5052499;28;20080;-87
2021/08/17 05:23:15;;;;;;;4.15;1.30;;;;;;;;;;5052771;28;20049;-90
2021/08/17 05:25:42;;;;;;;11.18;1.48;;;;;;;;;;5053362;28;20084;-88
2021/08/17 05:28:16;;;;;;;10.10;2.75;;;;;;;;;;5052826;28;20080;-90
2021/08/17 05:30:43;;;;;;;11.60;1.98;;;;;;;;;;5051948;28;20076;-90
2021/08/17 05:33:17;;;;;;;13.52;1.58;;;;;;;;;;5052927;28;20127;-91
2021/08/17 05:35:44;;;;;;;15.05;1.75;;;;;;;;;;5053271;28;20045;-91
2021/08/17 05:38:12;;;;;;;10.75;2.00;;;;;;;;;;5052996;28;20555;-89
2021/08/17 05:40:39;;;;;;;14.90;2.88;;;;;;;;;;5051569;28;20140;-90
2021/08/17 05:43:08;;;;;;;13.73;1.77;;;;;;;;;;5052657;28;20088;-90
2021/08/17 05:45:56;;;;;;;27.25;2.30;;;;;;;;;;5052470;28;20477;-90
2021/08/17 05:48:23;;;;;;;12.38;2.15;;;;;;;;;;5052722;28;20493;-91
2021/08/17 05:50:58;;;;;;;8.95;1.63;;;;;;;;;;5052443;28;20588;-89
2021/08/17 05:53:25;;;;;;;9.02;1.48;;;;;;;;;;5053005;28;20095;-90
2021/08/17 05:55:52;;;;;;;6.03;1.70;;;;;;;;;;5052558;28;20072;-90
2021/08/17 05:58:19;;;;;;;6.78;1.77;;;;;;;;;;5052401;28;20080;-90
2021/08/17 06:00:47;;;;;;;10.65;2.15;;;;;;;;;;5052292;28;20512;-90
2021/08/17 06:03:14;;;;;;;5.88;1.52;;;;;;;;;;5052714;28;20107;-91
2021/08/17 06:05:42;;;;;;;8.85;1.60;;;;;;;;;;5052922;28;20520;-90
2021/08/17 06:08:09;;;;;;;10.43;1.60;;;;;;;;;;5052242;28;20053;-90
2021/08/17 06:10:36;;;;;;;8.90;1.80;;;;;;;;;;5052067;28;20132;-90
2021/08/17 06:13:05;;;;;;;12.65;2.13;;;;;;;;;;5051649;28;20698;-90
2021/08/17 06:15:32;;;;;;;16.55;2.33;;;;;;;;;;5046728;28;20140;-90
2021/08/17 06:18:04;;;;;;;15.77;2.30;;;;;;;;;;5047215;28;20053;-92
2021/08/17 06:20:33;;;;;;;11.80;1.90;;;;;;;;;;5052933;28;20133;-90
2021/08/17 06:23:01;;;;;;;13.50;3.75;;;;;;;;;;5052143;28;20059;-90
2021/08/17 06:25:29;;;;;;;13.10;2.75;;;;;;;;;;5051960;28;20053;-91
2021/08/17 06:27:57;;;;;;;13.85;2.67;;;;;;;;;;5052602;28;20072;-89
2021/08/17 06:30:24;;;;;;;6.75;2.08;;;;;;;;;;5053727;28;20053;-90
2021/08/17 06:32:56;;;;;;;13.27;2.10;;;;;;;;;;5053231;28;20056;-91
2021/08/17 06:35:23;;;;;;;11.48;2.35;;;;;;;;;;5052514;28;20052;-91
2021/08/17 06:37:51;;;;;;;19.08;2.20;;;;;;;;;;5053146;28;20655;-91
2021/08/17 06:40:19;;;;;;;9.57;1.73;;;;;;;;;;5052227;28;20091;-91
2021/08/17 06:42:47;;;;;;;22.02;2.35;;;;;;;;;;5052112;28;20080;-91
2021/08/17 06:45:14;;;;;;;9.32;1.73;;;;;;;;;;5051899;28;20131;-90
2021/08/17 06:47:50;;;;;;;12.27;2.25;;;;;;;;;;5054431;28;20481;-91
2021/08/17 06:50:38;;;;;;;;;;;;;;;;;;5052939;28;20116;-92
2021/08/17 06:53:06;;;;;;;15.90;2.20;;;;;;;;;;5052369;28;19971;-91
2021/08/17 06:55:35;;;;;;;11.35;1.60;;;;;;;;;;5053917;28;20053;-89
2021/08/17 06:58:04;;;;;;;13.02;2.08;;;;;;;;;;5052976;28;20671;-90
2021/08/17 07:00:31;;;;;;;9.20;2.10;;;;;;;;;;5051249;28;20072;-92
2021/08/17 07:03:07;;;;;;;12.30;2.55;;;;;;;;;;5051428;28;20107;-89
2021/08/17 07:05:37;;;;;;;12.90;2.20;;;;;;;;;;5051955;28;20139;-92
2021/08/17 07:08:05;;;;;;;19.17;3.10;;;;;;;;;;5052591;28;20079;-91
2021/08/17 07:10:32;;;;;;;16.98;2.22;;;;;;;;;;5051235;28;20559;-90
2021/08/17 07:13:18;;;;;;;14.32;2.15;;;;;;;;;;5045828;28;20064;-92
2021/08/17 07:15:46;;;;;;;17.13;2.67;;;;;;;;;;5053180;28;20055;-91
2021/08/17 07:18:13;;;;;;;20.38;3.05;;;;;;;;;;5051977;28;20123;-91
2021/08/17 07:20:41;;;;;;;22.23;3.33;;;;;;;;;;5052242;28;20084;-88
2021/08/17 07:23:08;;;;;;;14.60;2.47;;;;;;;;;;5051900;28;20053;-89
2021/08/17 07:25:37;;;;;;;16.25;2.97;;;;;;;;;;5051269;28;20045;-90
2021/08/17 07:28:05;;;;;;;21.10;4.25;;;;;;;;;;5051805;28;20060;-88
2021/08/17 07:30:33;;;;;;;17.08;2.67;;;;;;;;;;5052503;28;20052;-90
2021/08/17 07:33:00;;;;;;;15.40;2.53;;;;;;;;;;5051821;28;20053;-90
2021/08/17 07:35:28;;;;;;;17.33;2.83;;;;;;;;;;5052372;28;20440;-92
2021/08/17 07:37:55;;;;;;;13.20;2.75;;;;;;;;;;5051336;28;20080;-91
2021/08/17 07:40:23;;;;;;;18.77;2.72;;;;;;;;;;5051440;28;20135;-90
2021/08/17 07:42:50;;;;;;;14.27;2.60;;;;;;;;;;5050825;28;20061;-90
2021/08/17 07:45:18;;;;;;;20.10;2.60;;;;;;;;;;5051205;28;20132;-91
2021/08/17 07:48:00;;;;;;;12.75;2.50;;;;;;;;;;5051845;28;20084;-91
2021/08/17 07:50:27;;;;;;;15.63;2.78;;;;;;;;;;5050791;28;20045;-91
2021/08/17 07:52:58;;;;;;;17.75;3.40;;;;;;;;;;5050444;28;20115;-90
2021/08/17 07:55:25;;;;;;;10.35;2.45;;;;;;;;;;5051675;28;20079;-90
2021/08/17 07:57:52;;;;;;;20.50;2.70;;;;;;;;;;5051926;28;20079;-89
2021/08/17 08:00:19;;;;;;;15.98;2.60;;;;;;;;;;5050482;28;20094;-90
2021/08/17 08:02:48;;;;;;;19.10;2.75;;;;;;;;;;5050545;28;20060;-91
2021/08/17 08:05:16;;;;;;;22.05;2.95;;;;;;;;;;5050230;28;20045;-91
2021/08/17 08:07:43;;;;;;;23.33;3.10;;;;;;;;;;5042638;28;20080;-90
2021/08/17 08:10:10;;;;;;;25.92;2.92;;;;;;;;;;5051862;28;20099;-90
2021/08/17 08:12:41;;;;;;;9.90;2.97;;;;;;;;;;5049874;28;20065;-91
2021/08/17 08:15:12;;;;;;;18.98;3.03;;;;;;;;;;5051352;28;20127;-91
2021/08/17 08:17:44;;;;;;;13.10;2.70;;;;;;;;;;5052269;28;20787;-91
2021/08/17 08:20:12;;;;;;;14.48;2.78;;;;;;;;;;5051152;28;20103;-89
2021/08/17 08:22:44;;;;;;;16.52;3.28;;;;;;;;;;5050643;28;20130;-90
2021/08/17 08:25:16;;;;;;;14.23;2.85;;;;;;;;;;5050653;28;20131;-91
2021/08/17 08:27:44;;;;;;;20.50;2.75;;;;;;;;;;5050214;28;20084;-89
2021/08/17 08:30:12;;;;;;;20.90;2.75;;;;;;;;;;5050361;28;20084;-92
2021/08/17 08:32:39;;;;;;;21.65;4.07;;;;;;;;;;5050299;28;20164;-90
2021/08/17 08:35:07;;;;;;;13.98;2.63;;;;;;;;;;5052399;28;20049;-91
2021/08/17 08:37:53;;;;;;;12.68;2.85;;;;;;;;;;5050634;28;20148;-89
2021/08/17 08:40:21;;;;;;;12.52;2.30;;;;;;;;;;5050824;28;20083;-89
2021/08/17 08:42:48;;;;;;;20.15;3.05;;;;;;;;;;5050347;28;20084;-90
2021/08/17 08:45:19;;;;;;;19.15;3.03;;;;;;;;;;5050657;28;20474;-91
2021/08/17 08:47:46;;;;;;;10.43;3.25;;;;;;;;;;5051767;28;20107;-90
2021/08/17 08:50:40;;;;;;;13.70;3.03;;;;;;;;;;5054076;28;20103;-89
2021/08/17 08:53:07;;;;;;;15.38;2.45;;;;;;;;;;5054147;28;20486;-90
2021/08/17 08:55:34;;;;;;;19.35;3.28;;;;;;;;;;5053555;28;20048;-89
2021/08/17 08:58:01;;;;;;;13.23;3.70;;;;;;;;;;5053754;28;20477;-91
2021/08/17 09:00:28;;;;;;;23.13;3.03;;;;;;;;;;5053745;28;20135;-90
2021/08/17 09:02:56;;;;;;;11.07;2.47;;;;;;;;;;5055208;28;20045;-90
2021/08/17 09:05:28;;;;;;;15.52;2.80;;;;;;;;;;5053901;28;20056;-90
2021/08/17 09:07:56;;;;;;;14.90;2.83;;;;;;;;;;5053504;28;20053;-88
2021/08/17 09:10:25;;;;;;;20.20;3.40;;;;;;;;;;5054653;28;20128;-89
2021/08/17 09:12:53;;;;;;;16.17;3.25;;;;;;;;;;5052983;28;20174;-90
2021/08/17 09:15:30;;;;;;;15.90;2.55;;;;;;;;;;5053539;28;20501;-90
2021/08/17 09:18:03;;;;;;;15.65;2.58;;;;;;;;;;5054361;28;20049;-91
2021/08/17 09:20:33;;;;;;;17.08;3.28;;;;;;;;;;5047669;28;20056;-91
2021/08/17 09:23:37;;;;;;;15.55;2.67;;;;;;;;;;5053005;28;20833;-90
2021/08/17 09:26:26;;;;;;;18.08;2.92;;;;;;;;;;5045394;28;20124;-89
2021/08/17 09:28:55;;;;;;;13.70;2.90;;;;;;;;;;5053161;28;20131;-90
2021/08/17 09:31:32;;;;;;;16.05;3.15;;;;;;;;;;5052875;28;20146;-88
2021/08/17 09:34:00;;;;;;;9.43;2.28;;;;;;;;;;5048904;28;20057;-89
2021/08/17 09:36:41;;;;;;;10.88;2.38;;;;;;;;;;5049388;28;20076;-90
2021/08/17 09:39:09;;;;;;;13.02;3.00;;;;;;;;;;5048482;28;20087;-90
2021/08/17 09:41:37;;;;;;;13.40;2.97;;;;;;;;;;5050644;28;20061;-90
2021/08/17 09:44:05;;;;;;;12.27;2.78;;;;;;;;;;5048971;28;20091;-91
2021/08/17 09:46:34;;;;;;;9.95;2.78;;;;;;;;;;5050149;28;20080;-89
2021/08/17 09:49:18;;;;;;;14.77;2.78;;;;;;;;;;5051797;28;20061;-90
2021/08/17 09:51:45;;;;;;;12.77;3.42;;;;;;;;;;5050844;28;20130;-90
2021/08/17 09:54:16;;;;;;;18.02;3.33;;;;;;;;;;5050750;28;20304;-90
2021/08/17 09:56:58;;;;;;;15.00;3.15;;;;;;;;;;5054249;28;20615;-90
2021/08/17 09:59:31;;;;;;;12.73;2.88;;;;;;;;;;5053033;28;20049;-90
2021/08/17 10:02:10;;;;;;;10.02;2.70;;;;;;;;;;5053316;28;20140;-91
2021/08/17 10:04:38;;;;;;;12.88;3.08;;;;;;;;;;5053557;28;20067;-90
2021/08/17 10:07:06;;;;;;;9.05;2.55;;;;;;;;;;5053162;28;20053;-90
2021/08/17 10:09:35;;;;;;;15.40;2.90;;;;;;;;;;5053179;28;20049;-90
2021/08/17 10:12:07;;;;;;;12.65;3.78;;;;;;;;;;5053186;28;20049;-92
2021/08/17 10:14:35;;;;;;;17.60;3.47;;;;;;;;;;5053689;28;20072;-90
2021/08/17 10:17:02;;;;;;;14.32;3.25;;;;;;;;;;5052010;28;20080;-89
2021/08/17 10:19:32;;;;;;;19.88;4.55;;;;;;;;;;5052496;28;20076;-91
2021/08/17 10:22:00;;;;;;;10.02;2.83;;;;;;;;;;5052433;28;20139;-91
2021/08/17 10:24:29;;;;;;;10.13;2.22;;;;;;;;;;5051813;28;20802;-91
2021/08/17 10:27:27;;;;;;;8.50;2.47;;;;;;;;;;5051886;28;20128;-92
2021/08/17 10:32:53;;;;;;;9.60;3.47;;;;;;;;;;5053323;28;20200;-90
2021/08/17 10:38:13;;;;;;;12.23;2.67;;;;;;;;;;5053171;28;20095;-88
2021/08/17 10:40:40;;;;;;;;;;;;;;;;;;5053693;28;20089;-92
2021/08/17 10:43:08;;;;;;;6.93;2.40;;;;;;;;;;5051061;28;20097;-90
2021/08/17 10:45:37;;;;;;;11.65;2.80;;;;;;;;;;5051445;28;20103;-89
2021/08/17 10:48:08;;;;;;;12.80;2.55;;;;;;;;;;5052743;28;20133;-89
2021/08/17 10:50:36;;;;;;;5.63;1.88;;;;;;;;;;5052119;28;20656;-91
2021/08/17 10:53:26;;;;;;;5.63;1.98;;;;;;;;;;5053228;28;20556;-90
2021/08/17 10:56:10;;;;;;;12.68;2.70;;;;;;;;;;5035692;28;20548;-89
2021/08/17 10:58:41;;;;;;;9.00;2.38;;;;;;;;;;5046331;28;20132;-90
2021/08/17 11:01:09;;;;;;;7.78;1.95;;;;;;;;;;5053542;28;20140;-89
2021/08/17 11:03:41;;;;;;;8.15;2.30;;;;;;;;;;5052268;28;20547;-91
2021/08/17 11:06:08;;;;;;;8.57;2.58;;;;;;;;;;5051248;28;20084;-88
2021/08/17 11:08:37;;;;;;;10.00;2.70;;;;;;;;;;5051894;28;20140;-88
2021/08/17 11:11:27;;;;;;;10.40;2.85;;;;;;;;;;5048349;28;20584;-85
2021/08/17 11:14:04;;;;;;;11.27;2.92;;;;;;;;;;5050574;28;20080;-89
2021/08/17 11:16:32;;;;;;;14.15;4.13;;;;;;;;;;5050037;28;20081;-85
2021/08/17 11:19:01;;;;;;;9.50;3.08;;;;;;;;;;5047680;28;20053;-87
2021/08/17 11:21:38;;;;;;;12.32;3.60;;;;;;;;;;5049432;28;20056;-87
2021/08/17 11:24:19;;;;;;;9.70;3.20;;;;;;;;;;5049759;28;20057;-86
2021/08/17 11:26:54;;;;;;;9.73;3.30;;;;;;;;;;5048437;28;20887;-85
2021/08/17 11:29:27;;;;;;;11.38;4.38;;;;;;;;;;5050336;28;20084;-84
2021/08/17 11:31:55;;;;;;;7.22;3.53;;;;;;;;;;5049783;28;20128;-79
2021/08/17 11:34:27;;;;;;;10.20;3.40;;;;;;;;;;5050054;28;20084;-88
2021/08/17 11:36:57;;;;;;;11.10;4.05;;;;;;;;;;5050792;28;20478;-86
2021/08/17 11:39:26;;;;;;;12.70;3.88;;;;;;;;;;5051543;28;20131;-86
2021/08/17 11:41:53;;;;;;;10.77;3.83;;;;;;;;;;5051072;28;20063;-86
2021/08/17 11:44:28;;;;;;;13.88;3.92;;;;;;;;;;5050599;28;20049;-86
2021/08/17 11:47:05;;;;;;;13.90;3.30;;;;;;;;;;5050871;28;20083;-87
2021/08/17 11:49:32;;;;;;;8.52;3.13;;;;;;;;;;5050350;28;20485;-81
2021/08/17 11:52:07;;;;;;;7.75;2.30;;;;;;;;;;5030981;28;20081;-84
2021/08/17 11:54:40;;;;;;;4.63;2.15;;;;;;;;;;5032214;28;20136;-84
2021/08/17 11:57:11;;;;;;;7.57;2.60;;;;;;;;;;5043336;28;20045;-85
2021/08/17 11:59:45;;;;;;;10.75;2.30;;;;;;;;;;5051126;28;20088;-83
2021/08/17 12:02:18;;;;;;;14.05;3.35;;;;;;;;;;5049604;28;20045;-85
2021/08/17 12:04:53;;;;;;;6.07;2.35;;;;;;;;;;5051152;28;20052;-86
2021/08/17 12:07:20;;;;;;;10.60;2.88;;;;;;;;;;5049962;28;20132;-84
2021/08/17 12:09:49;;;;;;;10.32;2.30;;;;;;;;;;5049712;28;20088;-87
2021/08/17 12:12:37;;;;;;;9.75;2.53;;;;;;;;;;5049717;28;20124;-84
2021/08/17 12:15:08;;;;;;;6.03;2.25;;;;;;;;;;5049854;28;20084;-82
2021/08/17 12:17:36;;;;;;;5.65;2.60;;;;;;;;;;5051377;28;20041;-89
2021/08/17 12:20:04;;;;;;;5.50;2.20;;;;;;;;;;5051657;28;20087;-86
2021/08/17 12:22:32;;;;;;;6.00;2.45;;;;;;;;;;5051587;28;20139;-87
2021/08/17 12:24:59;;;;;;;8.73;2.65;;;;;;;;;;5052798;28;20126;-86
2021/08/17 12:27:28;;;;;;;11.40;2.60;;;;;;;;;;5054317;28;20142;-86
2021/08/17 12:29:56;;;;;;;6.72;1.83;;;;;;;;;;5055890;28;20084;-85
2021/08/17 12:32:28;;;;;;;6.03;2.00;;;;;;;;;;5053878;28;20900;-87
2021/08/17 12:35:09;;;;;;;5.43;1.77;;;;;;;;;;5054385;28;20075;-88
2021/08/17 12:37:37;;;;;;;5.57;2.28;;;;;;;;;;5054077;28;20079;-90
2021/08/17 12:40:11;;;;;;;8.00;2.20;;;;;;;;;;5054557;28;20083;-88
2021/08/17 12:42:42;;;;;;;4.38;1.80;;;;;;;;;;5055865;28;20073;-89
2021/08/17 12:45:28;;;;;;;5.60;2.10;;;;;;;;;;5054527;28;20045;-90
2021/08/17 12:48:03;;;;;;;12.20;2.05;;;;;;;;;;5054041;28;20202;-90
2021/08/17 12:50:30;;;;;;;;;;;;;;;;;;5053947;28;20111;-89
2021/08/17 12:53:01;;;;;;;4.85;1.38;;;;;;;;;;5053813;28;20020;-87
2021/08/17 12:55:28;;;;;;;6.38;1.40;;;;;;;;;;5053697;28;20151;-89
2021/08/17 12:57:59;;;;;;;6.82;1.88;;;;;;;;;;5053527;28;20067;-88
2021/08/17 13:00:27;;;;;;;11.77;2.05;;;;;;;;;;5054035;28;20083;-87
2021/08/17 13:02:54;;;;;;;4.68;1.42;;;;;;;;;;5055388;28;20056;-86
2021/08/17 13:05:22;;;;;;;5.45;1.70;;;;;;;;;;5054196;28;20053;-89
2021/08/17 13:07:49;;;;;;;3.90;1.67;;;;;;;;;;5053979;28;20052;-92
2021/08/17 13:10:18;;;;;;;7.03;1.70;;;;;;;;;;5053802;28;20115;-90
2021/08/17 13:12:45;;;;;;;4.38;1.60;;;;;;;;;;5050853;28;20072;-90
2021/08/17 13:15:13;;;;;;;9.80;1.85;;;;;;;;;;5053659;28;20049;-91
2021/08/17 13:17:41;;;;;;;9.35;2.13;;;;;;;;;;5053373;28;20077;-90
2021/08/17 13:20:09;;;;;;;6.50;1.73;;;;;;;;;;5054928;28;20128;-89
2021/08/17 13:22:37;;;;;;;3.25;1.20;;;;;;;;;;5053407;28;20099;-90
2021/08/17 13:25:05;;;;;;;4.47;1.30;;;;;;;;;;5050905;28;20123;-88
2021/08/17 13:27:32;;;;;;;4.00;1.20;;;;;;;;;;5052976;28;20128;-84
2021/08/17 13:30:01;;;;;;;3.42;0.93;;;;;;;;;;5053223;28;20084;-89
2021/08/17 13:32:29;;;;;;;3.03;1.00;;;;;;;;;;5052999;28;20763;-90
2021/08/17 13:34:58;;;;;;;4.65;1.40;;;;;;;;;;5052767;28;20080;-88
2021/08/17 13:37:41;;;;;;;3.97;1.30;;;;;;;;;;5053500;28;20116;-91
2021/08/17 13:40:08;;;;;;;4.75;1.45;;;;;;;;;;5053474;28;20076;-90
2021/08/17 13:42:36;;;;;;;5.00;1.60;;;;;;;;;;5054597;28;20048;-89
2021/08/17 13:45:12;;;;;;;6.55;1.45;;;;;;;;;;5053707;28;20057;-90
2021/08/17 13:47:39;;;;;;;5.53;1.30;;;;;;;;;;5053571;28;20131;-89
2021/08/17 13:50:09;;;;;;;2.30;0.77;;;;;;;;;;5053480;28;20087;-89
2021/08/17 13:52:36;;;;;;;10.70;1.25;;;;;;;;;;5052530;28;20092;-90
2021/08/17 13:55:10;;;;;;;4.78;1.23;;;;;;;;;;5054059;28;20120;-89
2021/08/17 13:57:37;;;;;;;4.85;1.00;;;;;;;;;;5053487;28;20551;-90
2021/08/17 14:00:23;;;;;;;2.83;0.85;;;;;;;;;;5054030;28;20139;-89
2021/08/17 14:02:51;;;;;;;5.40;0.90;;;;;;;;;;5053238;28;20148;-91
2021/08/17 14:05:18;;;;;;;4.82;1.13;;;;;;;;;;5052880;28;20055;-89
2021/08/17 14:07:45;;;;;;;4.07;0.85;;;;;;;;;;5053544;28;20049;-89
2021/08/17 14:10:12;;;;;;;4.50;1.20;;;;;;;;;;5053480;28;20186;-89
2021/08/17 14:12:39;;;;;;;10.15;1.30;;;;;;;;;;5052845;28;20555;-88
2021/08/17 14:15:06;;;;;;;17.90;2.13;;;;;;;;;;5052433;28;20068;-86
2021/08/17 14:17:34;;;;;;;11.05;1.48;;;;;;;;;;5053753;28;20143;-93
2021/08/17 14:20:05;;;;;;;2.85;1.10;;;;;;;;;;5052628;28;20057;-88
2021/08/17 14:22:32;;;;;;;5.28;0.90;;;;;;;;;;5052256;28;20110;-87
2021/08/17 14:25:00;;;;;;;7.68;1.70;;;;;;;;;;5052933;28;20549;-89
2021/08/17 14:27:27;;;;;;;2.53;1.17;;;;;;;;;;5052461;28;20548;-88
2021/08/17 14:30:08;;;;;;;7.25;1.60;;;;;;;;;;5052705;28;20092;-89
2021/08/17 14:32:36;;;;;;;2.90;0.90;;;;;;;;;;5052230;28;20120;-88
2021/08/17 14:35:08;;;;;;;6.55;1.30;;;;;;;;;;5052276;28;20088;-92
2021/08/17 14:37:37;;;;;;;6.65;1.27;;;;;;;;;;5052981;28;20135;-90
2021/08/17 14:40:05;;;;;;;5.00;1.17;;;;;;;;;;5053487;28;20132;-90
2021/08/17 14:42:44;;;;;;;4.43;1.55;;;;;;;;;;5051750;28;20049;-91
2021/08/17 14:45:36;;;;;;;4.63;1.40;;;;;;;;;;5051202;28;20526;-91
2021/08/17 14:48:04;;;;;;;7.88;1.63;;;;;;;;;;5053388;28;20144;-89
2021/08/17 14:50:31;;;;;;;7.85;1.75;;;;;;;;;;5052774;28;20481;-90
2021/08/17 14:52:58;;;;;;;5.10;1.08;;;;;;;;;;5051724;28;20838;-90
2021/08/17 14:55:25;;;;;;;5.78;1.45;;;;;;;;;;5052859;28;20409;-92
2021/08/17 14:57:56;;;;;;;6.22;1.48;;;;;;;;;;5052390;28;20126;-89
2021/08/17 15:00:24;;;;;;;6.80;1.40;;;;;;;;;;5051750;28;20080;-92